createdAt,value
2019-01-05T00:00:36.228Z,101666.95
2019-01-05T00:03:16.035Z,101667.11
2019-01-05T00:05:52.234Z,101658.09
2019-01-05T00:08:25.985Z,101652.01
2019-01-05T00:11:12.805Z,101661.55
2019-01-05T00:13:52.461Z,101655.28
2019-01-05T00:16:25.950Z,101656.44
2019-01-05T00:18:56.735Z,101660.57
2019-01-05T00:21:36.177Z,101659.41
2019-01-05T00:24:06.964Z,101660.39
2019-01-05T00:26:53.772Z,101649.41
2019-01-05T00:29:40.653Z,101642.31
2019-01-05T00:32:27.462Z,101647.75
2019-01-05T00:34:58.253Z,101649.21
2019-01-05T00:37:29.044Z,101647.58
2019-01-05T00:39:59.820Z,101649.54
2019-01-05T00:42:39.271Z,101645.12
2019-01-05T00:45:16.308Z,101642.98
2019-01-05T00:47:49.573Z,101643.47
2019-01-05T00:50:26.206Z,101634.62
2019-01-05T00:53:13.193Z,101633.78
2019-01-05T00:55:52.696Z,101630.50
2019-01-05T00:58:25.913Z,101629.20
2019-01-05T01:01:12.798Z,101637.90
2019-01-05T01:03:49.375Z,101633.94
2019-01-05T01:06:28.980Z,101640.86
2019-01-05T01:09:08.793Z,101643.33
2019-01-05T01:11:42.233Z,101645.78
2019-01-05T01:14:13.018Z,101643.14
2019-01-05T01:17:02.164Z,101639.72
2019-01-05T01:19:51.098Z,101642.82
2019-01-05T01:22:33.848Z,101641.51
2019-01-05T01:25:19.681Z,101644.47
2019-01-05T01:27:50.459Z,101646.29
2019-01-05T01:30:30.325Z,101645.28
2019-01-05T01:33:01.117Z,101645.61
2019-01-05T01:35:34.663Z,101639.39
2019-01-05T01:38:28.110Z,101636.25
2019-01-05T01:40:59.046Z,101638.56
2019-01-05T01:43:32.882Z,101632.97
2019-01-05T01:46:12.863Z,101629.05
2019-01-05T01:48:46.700Z,101620.64
2019-01-05T01:51:19.874Z,101622.14
2019-01-05T01:53:53.635Z,101618.36
2019-01-05T01:56:33.388Z,101618.17
2019-01-05T01:59:07.477Z,101616.04
2019-01-05T02:01:38.857Z,101621.66
2019-01-05T02:04:27.530Z,101616.05
2019-01-05T02:07:07.227Z,101613.58
2019-01-05T02:09:38.025Z,101610.14
2019-01-05T02:12:21.504Z,101608.01
2019-01-05T02:15:02.534Z,101603.40
2019-01-05T02:17:41.094Z,101602.74
2019-01-05T02:20:25.140Z,101592.19
2019-01-05T02:23:24.466Z,101589.08
2019-01-05T02:26:35.801Z,101583.30
2019-01-05T02:29:48.376Z,101586.25
2019-01-05T02:32:53.930Z,101590.50
2019-01-05T02:36:06.080Z,101588.53
2019-01-05T02:39:37.737Z,101578.34
2019-01-05T02:42:40.898Z,101570.92
2019-01-05T02:46:12.585Z,101580.77
2019-01-05T02:49:05.362Z,101568.91
2019-01-05T02:52:24.774Z,101573.53
2019-01-05T02:55:18.436Z,101573.37
2019-01-05T02:58:31.137Z,101564.99
2019-01-05T03:01:41.388Z,101571.73
2019-01-05T03:04:40.494Z,101553.30
2019-01-05T03:08:02.885Z,101547.72
2019-01-05T03:11:14.686Z,101533.12
2019-01-05T03:14:38.633Z,101518.00
2019-01-05T03:17:37.865Z,101513.03
2019-01-05T03:20:43.583Z,101508.28
2019-01-05T03:23:48.420Z,101499.91
2019-01-05T03:26:53.924Z,101486.11
2019-01-05T03:29:57.840Z,101485.11
2019-01-05T03:32:55.460Z,101488.23
2019-01-05T03:35:54.708Z,101483.98
2019-01-05T03:38:38.981Z,101477.73
2019-01-05T03:41:52.387Z,101476.41
2019-01-05T03:45:04.334Z,101469.03
2019-01-05T03:48:14.452Z,101462.95
2019-01-05T03:51:04.570Z,101454.75
2019-01-05T03:54:26.709Z,101448.50
2019-01-05T03:57:45.334Z,101445.70
2019-01-05T04:00:51.985Z,101442.58
2019-01-05T04:04:08.436Z,101444.55
2019-01-05T04:07:09.681Z,101457.51
2019-01-05T04:10:32.315Z,101450.28
2019-01-05T04:13:50.158Z,101456.51
2019-01-05T04:16:57.376Z,101454.37
2019-01-05T04:20:18.262Z,101445.69
2019-01-05T04:23:31.757Z,101449.11
2019-01-05T04:26:44.724Z,101446.16
2019-01-05T04:29:56.347Z,101444.85
2019-01-05T04:32:52.925Z,101437.45
2019-01-05T04:35:49.154Z,101432.38
2019-01-05T04:39:05.287Z,101433.67
2019-01-05T04:41:49.587Z,101432.53
2019-01-05T04:44:46.284Z,101427.45
2019-01-05T04:47:57.922Z,101429.77
2019-01-05T04:51:22.143Z,101425.49
2019-01-05T04:54:30.342Z,101418.41
2019-01-05T04:57:26.520Z,101412.00
2019-01-05T05:00:33.688Z,101407.74
2019-01-05T05:03:40.717Z,101398.70
2019-01-05T05:07:09.230Z,101399.86
2019-01-05T05:10:21.244Z,101390.98
2019-01-05T05:13:40.737Z,101397.06
2019-01-05T05:17:14.877Z,101388.18
2019-01-05T05:20:26.877Z,101383.09
2019-01-05T05:23:37.129Z,101384.89
2019-01-05T05:26:59.826Z,101379.47
2019-01-05T05:29:56.488Z,101373.57
2019-01-05T05:32:59.101Z,101366.52
2019-01-05T05:36:23.250Z,101369.31
2019-01-05T05:39:52.135Z,101360.62
2019-01-05T05:43:00.482Z,101362.74
2019-01-05T05:46:13.009Z,101365.53
2019-01-05T05:49:17.369Z,101357.17
2019-01-05T05:52:38.107Z,101350.42
2019-01-05T05:55:42.221Z,101357.98
2019-01-05T05:58:41.139Z,101364.04
2019-01-05T06:01:45.476Z,101359.62
2019-01-05T06:05:02.267Z,101353.21
2019-01-05T06:08:21.211Z,101344.69
2019-01-05T06:11:40.422Z,101345.48
2019-01-05T06:14:41.422Z,101347.31
2019-01-05T06:17:43.994Z,101350.61
2019-01-05T06:20:43.561Z,101340.27
2019-01-05T06:23:49.106Z,101338.78
2019-01-05T06:27:01.611Z,101341.08
2019-01-05T06:30:16.402Z,101336.64
2019-01-05T06:33:19.681Z,101327.94
2019-01-05T06:36:32.576Z,101328.77
2019-01-05T06:39:49.019Z,101338.44
2019-01-05T06:42:36.246Z,101332.87
2019-01-05T06:45:54.292Z,101327.94
2019-01-05T06:49:17.876Z,101338.79
2019-01-05T06:52:21.858Z,101325.98
2019-01-05T06:55:21.721Z,101321.70
2019-01-05T06:58:31.516Z,101324.65
2019-01-05T07:01:55.771Z,101324.98
2019-01-05T07:04:50.739Z,101323.34
2019-01-05T07:08:09.712Z,101319.08
2019-01-05T07:10:45.371Z,101320.05
2019-01-05T07:13:46.851Z,101325.33
2019-01-05T07:16:54.133Z,101320.71
2019-01-05T07:19:38.156Z,101325.16
2019-01-05T07:22:40.639Z,101317.44
2019-01-05T07:25:55.538Z,101308.08
2019-01-05T07:29:24.082Z,101300.84
2019-01-05T07:33:00.472Z,101301.00
2019-01-05T07:36:29.346Z,101298.38
2019-01-05T07:39:33.790Z,101298.21
2019-01-05T07:42:36.197Z,101298.22
2019-01-05T07:45:39.829Z,101298.56
2019-01-05T07:49:21.852Z,101298.23
2019-01-05T07:52:42.501Z,101294.63
2019-01-05T07:55:38.933Z,101296.92
2019-01-05T07:58:47.625Z,101291.98
2019-01-05T08:01:47.321Z,101290.18
2019-01-05T08:05:07.519Z,101289.20
2019-01-05T08:08:18.838Z,101292.13
2019-01-05T08:11:44.533Z,101289.69
2019-01-05T08:15:12.905Z,101285.07
2019-01-05T08:18:27.194Z,101284.11
2019-01-05T08:21:42.483Z,101288.05
2019-01-05T08:25:13.656Z,101290.19
2019-01-05T08:28:30.216Z,101285.74
2019-01-05T08:31:52.953Z,101281.47
2019-01-05T08:35:06.460Z,101279.17
2019-01-05T08:38:27.354Z,101273.77
2019-01-05T08:41:56.922Z,101275.72
2019-01-05T08:45:06.640Z,101269.98
2019-01-05T08:48:35.021Z,101264.40
2019-01-05T08:51:43.858Z,101262.59
2019-01-05T08:55:02.965Z,101260.63
2019-01-05T08:58:10.029Z,101263.90
2019-01-05T09:01:25.690Z,101261.11
2019-01-05T09:04:40.714Z,101250.44
2019-01-05T09:07:48.133Z,101245.67
2019-01-05T09:11:12.711Z,101253.41
2019-01-05T09:14:19.912Z,101247.34
2019-01-05T09:17:21.743Z,101247.47
2019-01-05T09:20:30.450Z,101239.27
2019-01-05T09:23:11.869Z,101231.39
2019-01-05T09:26:20.108Z,101234.98
2019-01-05T09:29:33.044Z,101236.97
2019-01-05T09:32:38.080Z,101236.63
2019-01-05T09:35:30.823Z,101228.90
